Time,TemperatureF,DewpointF,PressureIn,WindDirection,WindDirectionDegrees,WindSpeedMPH,WindSpeedGustMPH,Humidity,HourlyPrecipIn,Conditions,Clouds,dailyrainin,SoftwareType,DateUTC
2014-09-18 00:04:00,78.9,73.0,29.94,SSE,167,2.4,4.8,82,0.00,,---,0.00,VWS V13.01,2014-09-18 04:04:00,
2014-09-18 00:09:00,79.1,73.2,29.94,SSW,207,4.5,5.0,82,0.00,,---,0.00,VWS V13.01,2014-09-18 04:09:00,
2014-09-18 00:14:00,78.9,73.1,29.94,SSW,193,6.7,6.7,82,0.00,,---,0.00,VWS V13.01,2014-09-18 04:14:00,
2014-09-18 00:19:00,78.9,72.9,29.94,South,179,3.3,4.5,82,0.00,,---,0.00,VWS V13.01,2014-09-18 04:19:00,
2014-09-18 00:25:00,78.9,72.8,29.94,South,177,1.6,3.4,82,0.00,,---,0.00,VWS V13.01,2014-09-18 04:25:00,
2014-09-18 00:30:00,78.9,72.7,29.94,SSE,152,4.0,6.1,81,0.00,,---,0.00,VWS V13.01,2014-09-18 04:30:00,
2014-09-18 00:35:00,79.0,72.8,29.93,South,173,1.1,1.4,81,0.00,,---,0.00,VWS V13.01,2014-09-18 04:35:00,
2014-09-18 00:40:00,78.9,72.8,29.94,SSW,198,0.0,0.0,82,0.00,,---,0.00,VWS V13.01,2014-09-18 04:40:00,
2014-09-18 00:45:00,78.9,72.9,29.93,SSW,193,3.1,3.2,82,0.00,,---,0.00,VWS V13.01,2014-09-18 04:45:00,
2014-09-18 00:50:00,78.8,72.9,29.93,SSW,195,1.7,4.8,82,0.00,,---,0.00,VWS V13.01,2014-09-18 04:50:00,
2014-09-18 00:55:00,78.9,73.0,29.93,SW,231,2.9,3.1,82,0.00,,---,0.00,VWS V13.01,2014-09-18 04:55:00,
2014-09-18 01:01:00,78.8,73.0,29.93,South,181,1.4,2.9,82,0.00,,---,0.00,VWS V13.01,2014-09-18 05:01:00,
2014-09-18 01:04:00,78.9,73.1,29.93,SW,236,3.6,4.7,82,0.00,,---,0.00,VWS V13.01,2014-09-18 05:04:00,
2014-09-18 01:09:00,78.8,73.1,29.93,SSW,195,1.4,3.5,83,0.00,,---,0.00,VWS V13.01,2014-09-18 05:09:00,
2014-09-18 01:15:00,78.8,73.2,29.93,SW,222,0.0,3.5,83,0.00,,---,0.00,VWS V13.01,2014-09-18 05:15:00,
2014-09-18 01:20:00,78.8,73.3,29.93,South,183,0.0,0.0,83,0.00,,---,0.00,VWS V13.01,2014-09-18 05:20:00,
2014-09-18 01:26:00,78.7,73.2,29.92,WSW,243,2.0,2.2,83,0.00,,---,0.00,VWS V13.01,2014-09-18 05:26:00,
2014-09-18 01:31:00,78.7,73.4,29.92,SW,214,0.0,0.3,84,0.00,,---,0.00,VWS V13.01,2014-09-18 05:31:00,
2014-09-18 01:37:00,78.4,73.2,29.92,SSW,193,1.0,6.3,84,0.00,,---,0.00,VWS V13.01,2014-09-18 05:37:00,
2014-09-18 01:42:00,78.4,73.2,29.92,SW,219,3.1,3.1,84,0.00,,---,0.00,VWS V13.01,2014-09-18 05:42:00,
2014-09-18 01:47:00,78.4,73.3,29.92,SW,232,1.7,2.9,84,0.00,,---,0.00,VWS V13.01,2014-09-18 05:47:00,
2014-09-18 01:52:00,78.7,73.6,29.92,South,191,0.8,1.6,84,0.00,,---,0.00,VWS V13.01,2014-09-18 05:52:00,
2014-09-18 01:57:00,78.5,73.4,29.92,SSW,202,3.6,3.6,84,0.00,,---,0.00,VWS V13.01,2014-09-18 05:57:00,
2014-09-18 02:02:00,78.5,73.4,29.91,SSW,207,1.6,2.7,84,0.00,,---,0.00,VWS V13.01,2014-09-18 06:02:00,
2014-09-18 02:08:00,78.3,73.2,29.91,SSW,201,1.4,1.8,84,0.00,,---,0.00,VWS V13.01,2014-09-18 06:08:00,
2014-09-18 02:13:00,78.3,73.2,29.91,West,269,2.7,3.8,84,0.00,,---,0.00,VWS V13.01,2014-09-18 06:13:00,
2014-09-18 02:18:00,78.3,73.2,29.91,WSW,242,5.1,5.1,84,0.00,,---,0.00,VWS V13.01,2014-09-18 06:18:00,
2014-09-18 02:23:00,78.3,73.2,29.91,WSW,242,2.7,3.2,84,0.00,,---,0.00,VWS V13.01,2014-09-18 06:23:00,
2014-09-18 02:28:00,78.2,73.2,29.90,SSW,204,3.2,5.5,85,0.00,,---,0.00,VWS V13.01,2014-09-18 06:28:00,
2014-09-18 02:33:00,78.2,73.2,29.90,South,186,1.1,2.1,85,0.00,,---,0.00,VWS V13.01,2014-09-18 06:33:00,
2014-09-18 02:39:00,78.2,73.3,29.90,South,177,1.6,3.5,85,0.00,,---,0.00,VWS V13.01,2014-09-18 06:39:00,
2014-09-18 02:44:00,78.1,73.3,29.90,SW,217,0.8,1.7,85,0.00,,---,0.00,VWS V13.01,2014-09-18 06:44:00,
2014-09-18 02:49:00,78.1,73.4,29.90,South,180,1.3,2.5,85,0.00,,---,0.00,VWS V13.01,2014-09-18 06:49:00,
2014-09-18 02:54:00,77.5,72.9,29.90,SSW,200,4.8,5.8,86,0.00,,---,0.00,VWS V13.01,2014-09-18 06:54:00,
2014-09-18 03:00:00,78.0,73.3,29.90,SSW,197,2.9,3.7,86,0.00,,---,0.00,VWS V13.01,2014-09-18 07:00:00,
2014-09-18 03:05:00,77.8,73.2,29.90,SE,135,1.7,4.9,86,0.00,,---,0.00,VWS V13.01,2014-09-18 07:05:00,
2014-09-18 03:10:00,77.9,73.3,29.90,SSE,166,0.0,0.0,86,0.00,,---,0.00,VWS V13.01,2014-09-18 07:10:00,
2014-09-18 03:15:00,77.8,73.2,29.89,SSW,212,2.0,2.2,86,0.00,,---,0.00,VWS V13.01,2014-09-18 07:15:00,
2014-09-18 03:20:00,77.8,73.3,29.89,South,186,2.0,2.0,86,0.00,,---,0.00,VWS V13.01,2014-09-18 07:20:00,
2014-09-18 03:25:00,77.8,73.4,29.89,SSW,200,2.9,5.7,86,0.00,,---,0.00,VWS V13.01,2014-09-18 07:25:00,
2014-09-18 03:30:00,77.5,73.1,29.89,SSW,200,2.1,4.2,86,0.00,,---,0.00,VWS V13.01,2014-09-18 07:30:00,
2014-09-18 03:36:00,77.4,73.0,29.89,South,190,2.0,3.1,86,0.00,,---,0.00,VWS V13.01,2014-09-18 07:36:00,
2014-09-18 03:41:00,77.4,73.1,29.89,South,191,2.4,4.0,86,0.00,,---,0.00,VWS V13.01,2014-09-18 07:41:00,
2014-09-18 03:46:00,77.2,72.9,29.89,SW,215,2.7,2.7,87,0.00,,---,0.00,VWS V13.01,2014-09-18 07:46:00,
2014-09-18 03:48:00,77.4,73.1,29.89,SSW,198,2.1,2.3,87,0.00,,---,0.00,VWS V13.01,2014-09-18 07:48:00,
2014-09-18 03:53:00,77.3,73.0,29.89,SSW,210,1.1,1.1,87,0.00,,---,0.00,VWS V13.01,2014-09-18 07:53:00,
2014-09-18 03:58:00,77.2,73.0,29.89,South,186,0.0,0.0,87,0.00,,---,0.00,VWS V13.01,2014-09-18 07:58:00,
2014-09-18 04:03:00,77.3,73.1,29.89,SW,224,1.4,2.0,87,0.00,,---,0.00,VWS V13.01,2014-09-18 08:03:00,
2014-09-18 04:08:00,77.4,73.2,29.89,SSE,159,1.9,3.4,87,0.00,,---,0.00,VWS V13.01,2014-09-18 08:08:00,
2014-09-18 04:14:00,77.0,72.9,29.89,SSW,202,1.4,4.0,87,0.00,,---,0.00,VWS V13.01,2014-09-18 08:14:00,
2014-09-18 04:19:00,77.2,73.1,29.89,SSE,150,2.4,3.1,87,0.00,,---,0.00,VWS V13.01,2014-09-18 08:19:00,
2014-09-18 04:24:00,77.0,73.0,29.89,SSW,198,0.7,0.7,88,0.00,,---,0.00,VWS V13.01,2014-09-18 08:24:00,
2014-09-18 04:29:00,77.1,73.1,29.89,SW,217,3.4,3.4,88,0.00,,---,0.00,VWS V13.01,2014-09-18 08:29:00,
2014-09-18 04:35:00,77.2,73.3,29.88,SSW,201,0.7,1.6,88,0.00,,---,0.00,VWS V13.01,2014-09-18 08:35:00,
2014-09-18 04:40:00,77.1,73.3,29.88,SW,215,3.7,4.0,88,0.00,,---,0.00,VWS V13.01,2014-09-18 08:40:00,
2014-09-18 04:45:00,77.2,73.4,29.88,SW,233,2.8,2.8,88,0.00,,---,0.00,VWS V13.01,2014-09-18 08:45:00,
2014-09-18 04:51:00,77.0,73.2,29.88,South,186,0.0,0.0,88,0.00,,---,0.00,VWS V13.01,2014-09-18 08:51:00,
2014-09-18 04:56:00,77.0,73.2,29.88,South,186,0.0,0.0,88,0.00,,---,0.00,VWS V13.01,2014-09-18 08:56:00,
2014-09-18 05:01:00,76.9,73.2,29.89,SW,225,0.7,0.7,88,0.00,,---,0.00,VWS V13.01,2014-09-18 09:01:00,
2014-09-18 05:06:00,76.9,73.2,29.89,SSW,211,0.0,0.0,88,0.00,,---,0.00,VWS V13.01,2014-09-18 09:06:00,
2014-09-18 05:11:00,76.9,73.2,29.89,SSW,211,0.0,0.0,88,0.00,,---,0.00,VWS V13.01,2014-09-18 09:11:00,
2014-09-18 05:17:00,76.8,73.2,29.89,SSW,211,0.0,0.0,88,0.00,,---,0.00,VWS V13.01,2014-09-18 09:17:00,
2014-09-18 05:22:00,76.7,73.1,29.89,SSW,211,0.0,0.0,89,0.00,,---,0.00,VWS V13.01,2014-09-18 09:22:00,
2014-09-18 05:27:00,76.8,73.2,29.89,SSW,211,0.0,0.0,89,0.00,,---,0.00,VWS V13.01,2014-09-18 09:27:00,
2014-09-18 05:32:00,76.5,73.0,29.89,SSW,211,0.0,0.0,89,0.00,,---,0.00,VWS V13.01,2014-09-18 09:32:00,
2014-09-18 05:37:00,76.3,72.9,29.89,SSW,211,0.0,0.0,89,0.00,,---,0.00,VWS V13.01,2014-09-18 09:37:00,
2014-09-18 05:43:00,76.3,73.0,29.89,SSW,211,0.0,0.0,89,0.00,,---,0.00,VWS V13.01,2014-09-18 09:43:00,
2014-09-18 05:48:00,76.1,72.8,29.89,SSW,211,0.0,0.0,90,0.00,,---,0.00,VWS V13.01,2014-09-18 09:48:00,
2014-09-18 05:54:00,75.9,72.7,29.90,SSW,211,0.0,0.0,90,0.00,,---,0.00,VWS V13.01,2014-09-18 09:54:00,
2014-09-18 05:59:00,75.7,72.6,29.90,SSW,211,0.0,0.0,90,0.00,,---,0.00,VWS V13.01,2014-09-18 09:59:00,
2014-09-18 06:04:00,75.7,72.7,29.90,SSW,211,0.0,0.0,90,0.00,,---,0.00,VWS V13.01,2014-09-18 10:04:00,
2014-09-18 06:09:00,75.9,73.0,29.90,SSW,211,0.0,0.0,91,0.00,,---,0.00,VWS V13.01,2014-09-18 10:09:00,
2014-09-18 06:14:00,75.8,73.0,29.90,SSW,211,0.0,0.0,91,0.00,,---,0.00,VWS V13.01,2014-09-18 10:14:00,
2014-09-18 06:20:00,75.7,73.0,29.91,SSW,211,0.0,0.0,91,0.00,,---,0.00,VWS V13.01,2014-09-18 10:20:00,
2014-09-18 06:25:00,75.6,72.9,29.91,SSW,211,0.0,0.0,91,0.00,,---,0.00,VWS V13.01,2014-09-18 10:25:00,
2014-09-18 06:30:00,75.8,73.2,29.91,SSW,211,0.0,0.0,92,0.00,,---,0.00,VWS V13.01,2014-09-18 10:30:00,
2014-09-18 06:35:00,75.5,72.9,29.91,SSW,211,0.0,0.0,92,0.00,,---,0.00,VWS V13.01,2014-09-18 10:35:00,